ESPA/LLA METAR and TAF weather

Enter ICAO airport designator
Station Type Date Time Source
ESPA METAR 2023/02/05 22:50 UTC NOAA

ESPA 052250Z VRB02KT CAVOK M08/M08 Q1024


Station Type Date Time Source
ESPA Decoded METAR 2023/02/05 22:50 UTC NOAA

Lulea / Kallax, Sweden (ESPA) 65-33N 022-08E 34M
Feb 05, 2023 - 05:50 PM EST / 2023.02.05 2250 UTC
Wind: Variable at 2 MPH (2 KT):0
Visibility: greater than 7 mile(s):0
Temperature: 17 F (-8 C)
Dew Point: 17 F (-8 C)
Relative Humidity: 100%
Pressure (altimeter): 30.24 in. Hg (1024 hPa)
ob: ESPA 052250Z VRB02KT CAVOK M08/M08 Q1024
cycle: 23

Station Type Date Time Source
ESPA TAF 2022/11/09 09:36 UTC NOAA

TAF TAF ESPA 090828Z 0909/0921 01006KT 9999 SCT007 BKN015
TEMPO 0909/0918 3000 SN SG BKN006
BECMG 0916/0919 2000 SN BKN005
RMK MIL

Example: see airport list